sensor_id;sensor_type;location;lat;lon;timestamp;pressure;altitude;pressure_sealevel;temperature;humidity
47154;BME280;32907;41.412;2.164;2023-05-08T00:00:20;100943.03;;;23.83;47.21
47154;BME280;32907;41.412;2.164;2023-05-08T00:02:48;100967.97;;;23.95;47.37
47154;BME280;32907;41.412;2.164;2023-05-08T00:05:16;100966.34;;;23.94;47.20
47154;BME280;32907;41.412;2.164;2023-05-08T00:07:44;100961.66;;;23.94;47.14
47154;BME280;32907;41.412;2.164;2023-05-08T00:10:13;100944.84;;;23.87;47.39
47154;BME280;32907;41.412;2.164;2023-05-08T00:12:41;100961.66;;;23.94;47.40
47154;BME280;32907;41.412;2.164;2023-05-08T00:15:09;100962.47;;;23.95;47.06
47154;BME280;32907;41.412;2.164;2023-05-08T00:17:37;100939.19;;;23.84;47.33
47154;BME280;32907;41.412;2.164;2023-05-08T00:20:07;100944.66;;;23.84;47.16
47154;BME280;32907;41.412;2.164;2023-05-08T00:22:38;100900.25;;;23.59;47.17
47154;BME280;32907;41.412;2.164;2023-05-08T00:25:07;100945.66;;;23.88;46.89
47154;BME280;32907;41.412;2.164;2023-05-08T00:27:49;100941.38;;;23.82;47.44
47154;BME280;32907;41.412;2.164;2023-05-08T00:30:17;100943.03;;;23.83;47.22
47154;BME280;32907;41.412;2.164;2023-05-08T00:32:45;100943.03;;;23.83;47.22
47154;BME280;32907;41.412;2.164;2023-05-08T00:35:13;100908.38;;;23.64;47.07
47154;BME280;32907;41.412;2.164;2023-05-08T00:37:42;100893.69;;;23.60;47.27
47154;BME280;32907;41.412;2.164;2023-05-08T00:40:11;100877.13;;;23.52;47.24
47154;BME280;32907;41.412;2.164;2023-05-08T00:42:39;100899.16;;;23.60;47.17
47154;BME280;32907;41.412;2.164;2023-05-08T00:45:08;100902.56;;;23.66;47.33
47154;BME280;32907;41.412;2.164;2023-05-08T00:47:37;100902.47;;;23.57;47.68
47154;BME280;32907;41.412;2.164;2023-05-08T00:50:05;100901.91;;;23.60;47.19
47154;BME280;32907;41.412;2.164;2023-05-08T00:52:33;100918.09;;;23.70;47.38
47154;BME280;32907;41.412;2.164;2023-05-08T00:55:05;100885.53;;;23.55;47.60
47154;BME280;32907;41.412;2.164;2023-05-08T00:57:34;100928.22;;;23.84;47.78
47154;BME280;32907;41.412;2.164;2023-05-08T01:00:03;100907.94;;;23.71;47.63
47154;BME280;32907;41.412;2.164;2023-05-08T01:02:32;100924.69;;;23.83;47.62
47154;BME280;32907;41.412;2.164;2023-05-08T01:05:03;100849.97;;;23.41;47.21
47154;BME280;32907;41.412;2.164;2023-05-08T01:07:31;100865.88;;;23.53;47.46
47154;BME280;32907;41.412;2.164;2023-05-08T01:09:59;100917.75;;;23.86;47.82
47154;BME280;32907;41.412;2.164;2023-05-08T01:15:23;100877.44;;;23.64;47.33
47154;BME280;32907;41.412;2.164;2023-05-08T01:18:14;100912.78;;;23.88;47.52
47154;BME280;32907;41.412;2.164;2023-05-08T01:35:33;100926.16;;;23.89;46.60
47154;BME280;32907;41.412;2.164;2023-05-08T01:37:56;100923.13;;;23.91;46.22
47154;BME280;32907;41.412;2.164;2023-05-08T01:43:32;100925.56;;;23.92;45.46
47154;BME280;32907;41.412;2.164;2023-05-08T01:46:05;100922.75;;;23.84;45.45
47154;BME280;32907;41.412;2.164;2023-05-08T01:48:46;100864.75;;;23.54;45.64
47154;BME280;32907;41.412;2.164;2023-05-08T01:51:19;100922.50;;;23.94;46.22
47154;BME280;32907;41.412;2.164;2023-05-08T01:53:56;100886.84;;;23.71;46.41
47154;BME280;32907;41.412;2.164;2023-05-08T01:56:28;100929.59;;;23.95;46.67
47154;BME280;32907;41.412;2.164;2023-05-08T01:58:59;100904.06;;;23.86;46.83
47154;BME280;32907;41.412;2.164;2023-05-08T02:01:33;100925.75;;;23.96;46.82
47154;BME280;32907;41.412;2.164;2023-05-08T02:04:02;100890.91;;;23.74;46.85
47154;BME280;32907;41.412;2.164;2023-05-08T02:06:33;100920.41;;;23.91;46.66
47154;BME280;32907;41.412;2.164;2023-05-08T02:09:03;100897.22;;;23.75;46.35
47154;BME280;32907;41.412;2.164;2023-05-08T02:11:37;100880.28;;;23.59;46.70
47154;BME280;32907;41.412;2.164;2023-05-08T02:14:07;100928.00;;;23.94;46.81
47154;BME280;32907;41.412;2.164;2023-05-08T02:16:36;100858.28;;;23.50;46.77
47154;BME280;32907;41.412;2.164;2023-05-08T02:19:07;100877.25;;;23.60;47.17
47154;BME280;32907;41.412;2.164;2023-05-08T02:21:37;100929.59;;;23.95;46.84
47154;BME280;32907;41.412;2.164;2023-05-08T02:24:07;100923.63;;;23.93;47.23
47154;BME280;32907;41.412;2.164;2023-05-08T02:26:37;100902.25;;;23.81;47.10
47154;BME280;32907;41.412;2.164;2023-05-08T02:29:06;100920.09;;;23.92;47.03
47154;BME280;32907;41.412;2.164;2023-05-08T02:31:37;100925.25;;;23.94;46.97
47154;BME280;32907;41.412;2.164;2023-05-08T02:34:08;100875.59;;;23.59;47.01
47154;BME280;32907;41.412;2.164;2023-05-08T02:36:38;100901.03;;;23.73;47.15
47154;BME280;32907;41.412;2.164;2023-05-08T02:39:11;100910.47;;;23.81;47.58
47154;BME280;32907;41.412;2.164;2023-05-08T02:41:40;100917.28;;;23.84;47.18
47154;BME280;32907;41.412;2.164;2023-05-08T02:44:09;100944.91;;;23.96;47.26
47154;BME280;32907;41.412;2.164;2023-05-08T02:47:04;100926.25;;;23.98;47.33
47154;BME280;32907;41.412;2.164;2023-05-08T02:52:32;100907.94;;;23.85;47.38
47154;BME280;32907;41.412;2.164;2023-05-08T02:55:10;100879.06;;;23.65;47.79
47154;BME280;32907;41.412;2.164;2023-05-08T03:00:46;100918.03;;;23.98;47.59
47154;BME280;32907;41.412;2.164;2023-05-08T03:03:22;100895.84;;;23.86;47.49
47154;BME280;32907;41.412;2.164;2023-05-08T03:05:56;100863.16;;;23.67;47.48
47154;BME280;32907;41.412;2.164;2023-05-08T03:08:30;100857.03;;;23.56;47.60
47154;BME280;32907;41.412;2.164;2023-05-08T03:11:06;100877.41;;;23.78;47.37
47154;BME280;32907;41.412;2.164;2023-05-08T03:13:37;100904.03;;;23.99;47.83
47154;BME280;32907;41.412;2.164;2023-05-08T03:16:10;100913.19;;;23.95;47.13
47154;BME280;32907;41.412;2.164;2023-05-08T03:19:06;100898.50;;;23.91;47.11
47154;BME280;32907;41.412;2.164;2023-05-08T03:21:39;100909.94;;;23.93;46.78
47154;BME280;32907;41.412;2.164;2023-05-08T03:24:14;100882.91;;;23.78;46.59
47154;BME280;32907;41.412;2.164;2023-05-08T03:26:44;100889.97;;;23.79;46.79
47154;BME280;32907;41.412;2.164;2023-05-08T03:29:15;100883.31;;;23.71;47.22
47154;BME280;32907;41.412;2.164;2023-05-08T03:31:43;100898.19;;;23.79;47.05
47154;BME280;32907;41.412;2.164;2023-05-08T03:34:12;100925.75;;;23.96;47.04
47154;BME280;32907;41.412;2.164;2023-05-08T03:36:41;100900.44;;;23.77;46.91
47154;BME280;32907;41.412;2.164;2023-05-08T03:39:10;100856.03;;;23.52;47.20
47154;BME280;32907;41.412;2.164;2023-05-08T03:41:39;100888.47;;;23.72;47.07
47154;BME280;32907;41.412;2.164;2023-05-08T03:44:07;100926.88;;;23.95;47.18
47154;BME280;32907;41.412;2.164;2023-05-08T03:46:36;100907.94;;;23.85;47.36
47154;BME280;32907;41.412;2.164;2023-05-08T03:49:06;100925.75;;;23.96;47.26
47154;BME280;32907;41.412;2.164;2023-05-08T03:51:38;100900.22;;;23.87;47.03
47154;BME280;32907;41.412;2.164;2023-05-08T03:54:07;100908.31;;;23.92;46.96
47154;BME280;32907;41.412;2.164;2023-05-08T03:56:35;100910.44;;;23.95;47.18
47154;BME280;32907;41.412;2.164;2023-05-08T03:59:15;100899.22;;;23.83;47.33
47154;BME280;32907;41.412;2.164;2023-05-08T04:01:54;100905.28;;;23.93;47.17
47154;BME280;32907;41.412;2.164;2023-05-08T04:04:39;100891.00;;;23.83;47.27
47154;BME280;32907;41.412;2.164;2023-05-08T04:07:31;100918.66;;;23.95;47.33
47154;BME280;32907;41.412;2.164;2023-05-08T04:10:08;100911.06;;;23.92;47.18
47154;BME280;32907;41.412;2.164;2023-05-08T04:15:24;100914.13;;;23.90;47.11
47154;BME280;32907;41.412;2.164;2023-05-08T04:17:59;100917.13;;;23.89;47.27
47154;BME280;32907;41.412;2.164;2023-05-08T04:20:31;100881.19;;;23.68;47.32
47154;BME280;32907;41.412;2.164;2023-05-08T04:23:02;100868.09;;;23.65;47.30
47154;BME280;32907;41.412;2.164;2023-05-08T04:25:32;100879.44;;;23.72;47.38
47154;BME280;32907;41.412;2.164;2023-05-08T04:28:04;100904.47;;;23.93;47.59
47154;BME280;32907;41.412;2.164;2023-05-08T04:30:33;100844.06;;;23.48;47.54
47154;BME280;32907;41.412;2.164;2023-05-08T04:33:03;100901.34;;;23.86;47.60
47154;BME280;32907;41.412;2.164;2023-05-08T04:35:32;100855.03;;;23.48;47.71
47154;BME280;32907;41.412;2.164;2023-05-08T04:38:02;100896.09;;;23.76;47.98
47154;BME280;32907;41.412;2.164;2023-05-08T04:40:31;100877.25;;;23.60;47.74
47154;BME280;32907;41.412;2.164;2023-05-08T04:43:01;100929.72;;;23.90;48.16
47154;BME280;32907;41.412;2.164;2023-05-08T04:45:30;100923.75;;;23.88;48.05
47154;BME280;32907;41.412;2.164;2023-05-08T04:47:58;100918.25;;;23.88;47.92
47154;BME280;32907;41.412;2.164;2023-05-08T04:50:26;100924.53;;;23.88;47.83
47154;BME280;32907;41.412;2.164;2023-05-08T04:52:55;100921.41;;;23.81;48.13
47154;BME280;32907;41.412;2.164;2023-05-08T04:55:24;100930.66;;;23.85;48.43
47154;BME280;32907;41.412;2.164;2023-05-08T04:57:52;100913.81;;;23.78;48.02
47154;BME280;32907;41.412;2.164;2023-05-08T05:00:20;100883.41;;;23.52;48.34
47154;BME280;32907;41.412;2.164;2023-05-08T05:02:48;100912.00;;;23.73;48.05
47154;BME280;32907;41.412;2.164;2023-05-08T05:05:17;100913.66;;;23.75;48.04
47154;BME280;32907;41.412;2.164;2023-05-08T05:07:45;100933.06;;;23.87;48.10
47154;BME280;32907;41.412;2.164;2023-05-08T05:10:14;100928.41;;;23.87;48.11
47154;BME280;32907;41.412;2.164;2023-05-08T05:12:43;100913.75;;;23.69;48.07
47154;BME280;32907;41.412;2.164;2023-05-08T05:15:12;100934.28;;;23.81;47.88
47154;BME280;32907;41.412;2.164;2023-05-08T05:17:41;100938.06;;;23.85;47.87
47154;BME280;32907;41.412;2.164;2023-05-08T05:20:11;100923.38;;;23.67;47.76
47154;BME280;32907;41.412;2.164;2023-05-08T05:22:40;100946.28;;;23.85;47.87
47154;BME280;32907;41.412;2.164;2023-05-08T05:25:08;100789.91;;;22.81;47.91
47154;BME280;32907;41.412;2.164;2023-05-08T05:27:38;100845.06;;;23.02;47.60
47154;BME280;32907;41.412;2.164;2023-05-08T05:30:15;100799.81;;;22.77;47.56
47154;BME280;32907;41.412;2.164;2023-05-08T05:32:43;100808.22;;;22.81;47.51
47154;BME280;32907;41.412;2.164;2023-05-08T05:35:12;100837.03;;;23.06;47.35
47154;BME280;32907;41.412;2.164;2023-05-08T05:37:41;100888.59;;;23.40;47.42
47154;BME280;32907;41.412;2.164;2023-05-08T05:40:11;100952.97;;;23.79;47.60
47154;BME280;32907;41.412;2.164;2023-05-08T05:42:47;100970.50;;;23.91;47.53
47154;BME280;32907;41.412;2.164;2023-05-08T05:45:15;100974.06;;;23.92;47.56
47154;BME280;32907;41.412;2.164;2023-05-08T05:48:09;100978.19;;;23.89;47.58
47154;BME280;32907;41.412;2.164;2023-05-08T05:50:40;100930.25;;;23.51;47.69
47154;BME280;32907;41.412;2.164;2023-05-08T05:53:10;100930.25;;;23.51;47.81
47154;BME280;32907;41.412;2.164;2023-05-08T05:55:38;100978.44;;;23.79;47.87
47154;BME280;32907;41.412;2.164;2023-05-08T05:58:06;100912.09;;;23.41;47.90
47154;BME280;32907;41.412;2.164;2023-05-08T06:00:35;100894.38;;;23.25;47.97
47154;BME280;32907;41.412;2.164;2023-05-08T06:03:05;100983.31;;;23.82;47.94
47154;BME280;32907;41.412;2.164;2023-05-08T06:05:33;100982.38;;;23.87;48.22
47154;BME280;32907;41.412;2.164;2023-05-08T06:08:01;100977.72;;;23.87;48.06
47154;BME280;32907;41.412;2.164;2023-05-08T06:10:29;100928.34;;;23.65;48.67
47154;BME280;32907;41.412;2.164;2023-05-08T06:12:58;100939.19;;;23.70;53.47
47154;BME280;32907;41.412;2.164;2023-05-08T06:15:26;100968.59;;;23.92;51.70
47154;BME280;32907;41.412;2.164;2023-05-08T06:17:54;100939.28;;;23.79;50.19
47154;BME280;32907;41.412;2.164;2023-05-08T06:20:23;100953.75;;;23.93;49.37
47154;BME280;32907;41.412;2.164;2023-05-08T06:22:53;100963.69;;;24.03;48.61
47154;BME280;32907;41.412;2.164;2023-05-08T06:25:21;100810.88;;;23.00;48.45
47154;BME280;32907;41.412;2.164;2023-05-08T06:27:49;100937.56;;;23.83;48.30
47154;BME280;32907;41.412;2.164;2023-05-08T06:30:17;100977.38;;;24.03;48.45
47154;BME280;32907;41.412;2.164;2023-05-08T06:32:45;100961.03;;;23.97;48.22
47154;BME280;32907;41.412;2.164;2023-05-08T06:35:13;100936.94;;;23.86;48.05
47154;BME280;32907;41.412;2.164;2023-05-08T06:37:45;100955.88;;;23.96;47.91
47154;BME280;32907;41.412;2.164;2023-05-08T06:40:13;100932.91;;;23.83;48.02
47154;BME280;32907;41.412;2.164;2023-05-08T06:42:41;100949.50;;;24.00;47.87
47154;BME280;32907;41.412;2.164;2023-05-08T06:45:09;100889.19;;;23.64;47.91
47154;BME280;32907;41.412;2.164;2023-05-08T06:47:39;100947.16;;;23.94;47.49
47154;BME280;32907;41.412;2.164;2023-05-08T06:50:08;100867.00;;;23.52;47.99
47154;BME280;32907;41.412;2.164;2023-05-08T06:52:36;100718.31;;;22.52;47.70
47154;BME280;32907;41.412;2.164;2023-05-08T06:55:07;100693.59;;;22.29;47.34
47154;BME280;32907;41.412;2.164;2023-05-08T06:57:36;100819.00;;;23.19;47.21
47154;BME280;32907;41.412;2.164;2023-05-08T07:00:05;100950.31;;;24.01;47.31
47154;BME280;32907;41.412;2.164;2023-05-08T07:02:34;100699.69;;;22.40;46.93
47154;BME280;32907;41.412;2.164;2023-05-08T07:05:12;100941.38;;;23.95;46.46
47154;BME280;32907;41.412;2.164;2023-05-08T07:07:41;100770.81;;;22.95;46.75
47154;BME280;32907;41.412;2.164;2023-05-08T07:10:09;100950.72;;;23.94;46.64
47154;BME280;32907;41.412;2.164;2023-05-08T07:12:39;100736.97;;;22.64;46.48
47154;BME280;32907;41.412;2.164;2023-05-08T07:15:08;100831.16;;;23.26;46.30
47154;BME280;32907;41.412;2.164;2023-05-08T07:17:51;100690.47;;;22.36;46.14
47154;BME280;32907;41.412;2.164;2023-05-08T07:20:36;100829.22;;;23.27;46.57
47154;BME280;32907;41.412;2.164;2023-05-08T07:23:18;100699.50;;;22.50;46.64
47154;BME280;32907;41.412;2.164;2023-05-08T07:25:46;100924.75;;;23.92;46.36
47154;BME280;32907;41.412;2.164;2023-05-08T07:28:15;100693.03;;;22.46;46.80
47154;BME280;32907;41.412;2.164;2023-05-08T07:30:46;100845.13;;;23.38;46.80
47154;BME280;32907;41.412;2.164;2023-05-08T07:33:18;100797.53;;;23.12;46.55
47154;BME280;32907;41.412;2.164;2023-05-08T07:35:47;100869.25;;;23.50;46.86
47154;BME280;32907;41.412;2.164;2023-05-08T07:38:16;100869.84;;;23.61;46.49
47154;BME280;32907;41.412;2.164;2023-05-08T07:40:45;100849.16;;;23.41;46.56
47154;BME280;32907;41.412;2.164;2023-05-08T07:43:15;100786.28;;;23.00;46.89
47154;BME280;32907;41.412;2.164;2023-05-08T07:45:43;100750.09;;;22.61;46.90
47154;BME280;32907;41.412;2.164;2023-05-08T07:48:11;100797.00;;;23.10;46.23
47154;BME280;32907;41.412;2.164;2023-05-08T07:50:40;100848.34;;;23.40;46.46
47154;BME280;32907;41.412;2.164;2023-05-08T07:53:09;100723.78;;;22.66;46.69
47154;BME280;32907;41.412;2.164;2023-05-08T07:55:37;100713.25;;;22.59;46.36
47154;BME280;32907;41.412;2.164;2023-05-08T07:58:06;100875.50;;;23.64;46.45
47154;BME280;32907;41.412;2.164;2023-05-08T08:00:41;100892.16;;;23.68;46.42
47154;BME280;32907;41.412;2.164;2023-05-08T08:03:20;100873.41;;;23.61;46.59
47154;BME280;32907;41.412;2.164;2023-05-08T08:05:48;100860.72;;;23.38;46.23
47154;BME280;32907;41.412;2.164;2023-05-08T08:08:16;100877.81;;;23.57;46.50
47154;BME280;32907;41.412;2.164;2023-05-08T08:10:47;100711.81;;;22.61;46.28
47154;BME280;32907;41.412;2.164;2023-05-08T08:13:15;100748.09;;;22.81;46.37
47154;BME280;32907;41.412;2.164;2023-05-08T08:15:44;100924.69;;;24.06;46.63
47154;BME280;32907;41.412;2.164;2023-05-08T08:18:12;100770.34;;;23.15;46.27
47154;BME280;32907;41.412;2.164;2023-05-08T08:20:40;100931.38;;;24.13;46.38
47154;BME280;32907;41.412;2.164;2023-05-08T08:23:09;100866.78;;;23.76;46.00
47154;BME280;32907;41.412;2.164;2023-05-08T08:25:37;100781.44;;;23.10;45.97
47154;BME280;32907;41.412;2.164;2023-05-08T08:28:05;100951.00;;;24.29;45.54
47154;BME280;32907;41.412;2.164;2023-05-08T08:30:34;100732.13;;;22.88;45.89
47154;BME280;32907;41.412;2.164;2023-05-08T08:33:02;100871.13;;;23.77;45.93
47154;BME280;32907;41.412;2.164;2023-05-08T08:35:31;100762.69;;;23.04;45.58
47154;BME280;32907;41.412;2.164;2023-05-08T08:38:00;100946.72;;;24.14;46.08
47154;BME280;32907;41.412;2.164;2023-05-08T08:40:28;100836.28;;;23.41;45.64
47154;BME280;32907;41.412;2.164;2023-05-08T08:42:56;100951.16;;;24.24;45.53
47154;BME280;32907;41.412;2.164;2023-05-08T08:45:24;100923.41;;;23.89;45.70
47154;BME280;32907;41.412;2.164;2023-05-08T08:47:53;100890.19;;;23.82;45.29
47154;BME280;32907;41.412;2.164;2023-05-08T08:50:24;100861.41;;;23.71;44.86
47154;BME280;32907;41.412;2.164;2023-05-08T08:52:55;100965.13;;;24.36;45.57
47154;BME280;32907;41.412;2.164;2023-05-08T08:55:31;100700.41;;;22.59;45.26
47154;BME280;32907;41.412;2.164;2023-05-08T08:58:20;100962.72;;;24.35;45.25
47154;BME280;32907;41.412;2.164;2023-05-08T09:00:53;100716.59;;;22.70;45.21
47154;BME280;32907;41.412;2.164;2023-05-08T09:03:23;100747.81;;;22.96;45.20
47154;BME280;32907;41.412;2.164;2023-05-08T09:05:54;100921.69;;;24.07;45.34
47154;BME280;32907;41.412;2.164;2023-05-08T09:08:22;100968.09;;;24.40;45.85
47154;BME280;32907;41.412;2.164;2023-05-08T09:10:51;100948.28;;;24.29;45.90
47154;BME280;32907;41.412;2.164;2023-05-08T09:13:21;100961.47;;;24.41;46.39
47154;BME280;32907;41.412;2.164;2023-05-08T09:15:49;100934.41;;;24.25;46.52
47154;BME280;32907;41.412;2.164;2023-05-08T09:18:18;100930.03;;;24.24;46.33
47154;BME280;32907;41.412;2.164;2023-05-08T09:20:46;100927.91;;;24.21;46.66
47154;BME280;32907;41.412;2.164;2023-05-08T09:23:14;100945.63;;;24.38;46.70
47154;BME280;32907;41.412;2.164;2023-05-08T09:25:46;100966.81;;;24.46;49.66
47154;BME280;32907;41.412;2.164;2023-05-08T09:28:19;100953.84;;;24.38;47.46
47154;BME280;32907;41.412;2.164;2023-05-08T09:30:56;100945.53;;;24.29;47.32
47154;BME280;32907;41.412;2.164;2023-05-08T09:33:25;100964.81;;;24.38;48.71
47154;BME280;32907;41.412;2.164;2023-05-08T09:35:55;100977.44;;;24.39;49.55
47154;BME280;32907;41.412;2.164;2023-05-08T09:38:33;100982.03;;;24.52;49.26
47154;BME280;32907;41.412;2.164;2023-05-08T09:41:14;100987.41;;;24.57;48.92
47154;BME280;32907;41.412;2.164;2023-05-08T09:44:04;100983.53;;;24.58;48.32
47154;BME280;32907;41.412;2.164;2023-05-08T09:46:34;100961.72;;;24.53;48.77
47154;BME280;32907;41.412;2.164;2023-05-08T09:49:02;100932.44;;;24.40;48.33
47154;BME280;32907;41.412;2.164;2023-05-08T09:51:31;100927.25;;;24.38;48.16
47154;BME280;32907;41.412;2.164;2023-05-08T09:54:00;100967.03;;;24.72;48.29
47154;BME280;32907;41.412;2.164;2023-05-08T09:56:35;100945.25;;;24.53;47.68
47154;BME280;32907;41.412;2.164;2023-05-08T09:59:20;100969.94;;;24.75;47.50
47154;BME280;32907;41.412;2.164;2023-05-08T10:01:49;100933.38;;;24.58;46.75
47154;BME280;32907;41.412;2.164;2023-05-08T10:04:36;100721.31;;;23.19;46.89
47154;BME280;32907;41.412;2.164;2023-05-08T10:07:04;100943.22;;;24.59;47.17
47154;BME280;32907;41.412;2.164;2023-05-08T10:09:54;100809.22;;;23.67;47.09
47154;BME280;32907;41.412;2.164;2023-05-08T10:12:29;100887.44;;;24.18;48.05
47154;BME280;32907;41.412;2.164;2023-05-08T10:15:13;100756.84;;;23.33;47.90
47154;BME280;32907;41.412;2.164;2023-05-08T10:18:03;100883.31;;;24.07;47.65
47154;BME280;32907;41.412;2.164;2023-05-08T10:20:50;100745.63;;;23.21;47.40
47154;BME280;32907;41.412;2.164;2023-05-08T10:23:25;100742.16;;;23.29;47.47
47154;BME280;32907;41.412;2.164;2023-05-08T10:26:13;100736.28;;;23.35;46.71
47154;BME280;32907;41.412;2.164;2023-05-08T10:29:00;100820.28;;;23.85;47.10
47154;BME280;32907;41.412;2.164;2023-05-08T10:32:01;100740.31;;;23.38;47.29
47154;BME280;32907;41.412;2.164;2023-05-08T10:35:02;100908.31;;;24.50;46.80
47154;BME280;32907;41.412;2.164;2023-05-08T10:37:40;100760.09;;;23.57;47.08
47154;BME280;32907;41.412;2.164;2023-05-08T10:40:13;100750.91;;;23.53;47.19
47154;BME280;32907;41.412;2.164;2023-05-08T10:42:52;100852.06;;;24.08;46.88
47154;BME280;32907;41.412;2.164;2023-05-08T10:45:20;100843.09;;;24.16;46.90
47154;BME280;32907;41.412;2.164;2023-05-08T10:53:50;100963.75;;;24.92;46.80
47154;BME280;32907;41.412;2.164;2023-05-08T10:56:27;100844.88;;;24.21;46.97
47154;BME280;32907;41.412;2.164;2023-05-08T10:58:57;100953.91;;;24.91;47.31
47154;BME280;32907;41.412;2.164;2023-05-08T11:01:26;100848.56;;;24.16;47.28
47154;BME280;32907;41.412;2.164;2023-05-08T11:03:54;100853.44;;;24.19;47.22
47154;BME280;32907;41.412;2.164;2023-05-08T11:06:46;100944.38;;;24.89;45.91
47154;BME280;32907;41.412;2.164;2023-05-08T11:09:29;;;;23.63;
47154;BME280;32907;41.412;2.164;2023-05-08T11:12:08;100783.56;;;23.86;45.32
47154;BME280;32907;41.412;2.164;2023-05-08T11:14:56;100922.78;;;24.65;45.27
47154;BME280;32907;41.412;2.164;2023-05-08T11:17:26;100812.97;;;23.94;45.26
47154;BME280;32907;41.412;2.164;2023-05-08T11:20:04;100699.00;;;23.26;45.17
47154;BME280;32907;41.412;2.164;2023-05-08T11:22:34;100938.03;;;24.79;45.09
47154;BME280;32907;41.412;2.164;2023-05-08T11:25:07;100936.44;;;24.78;45.47
47154;BME280;32907;41.412;2.164;2023-05-08T11:33:15;100923.69;;;24.82;46.51
47154;BME280;32907;41.412;2.164;2023-05-08T11:38:33;100913.22;;;24.84;46.39
47154;BME280;32907;41.412;2.164;2023-05-08T11:41:03;100904.97;;;24.84;45.97
47154;BME280;32907;41.412;2.164;2023-05-08T11:46:04;100895.69;;;24.63;46.20
47154;BME280;32907;41.412;2.164;2023-05-08T11:48:35;100924.44;;;24.74;45.89
47154;BME280;32907;41.412;2.164;2023-05-08T11:51:03;100838.59;;;24.20;46.11
47154;BME280;32907;41.412;2.164;2023-05-08T11:53:35;100923.19;;;24.80;45.99
47154;BME280;32907;41.412;2.164;2023-05-08T11:56:05;100911.97;;;24.68;46.78
47154;BME280;32907;41.412;2.164;2023-05-08T11:58:36;100929.13;;;24.74;46.54
47154;BME280;32907;41.412;2.164;2023-05-08T12:01:04;100759.41;;;23.65;46.38
47154;BME280;32907;41.412;2.164;2023-05-08T12:03:33;100693.53;;;23.26;46.88
47154;BME280;32907;41.412;2.164;2023-05-08T12:06:01;100917.47;;;24.68;47.23
47154;BME280;32907;41.412;2.164;2023-05-08T12:08:37;100812.69;;;24.04;47.29
47154;BME280;32907;41.412;2.164;2023-05-08T12:11:08;100833.13;;;24.20;47.12
47154;BME280;32907;41.412;2.164;2023-05-08T12:13:37;100723.63;;;23.62;47.33
47154;BME280;32907;41.412;2.164;2023-05-08T12:16:35;100637.88;;;23.08;47.50
47154;BME280;32907;41.412;2.164;2023-05-08T12:19:28;100646.88;;;23.08;47.57
47154;BME280;32907;41.412;2.164;2023-05-08T12:22:18;100704.84;;;23.33;48.43
47154;BME280;32907;41.412;2.164;2023-05-08T12:24:59;100796.25;;;24.04;47.86
47154;BME280;32907;41.412;2.164;2023-05-08T12:27:36;100635.25;;;23.03;47.75
47154;BME280;32907;41.412;2.164;2023-05-08T12:30:16;100731.91;;;23.70;47.96
47154;BME280;32907;41.412;2.164;2023-05-08T12:32:49;100808.97;;;24.22;47.14
47154;BME280;32907;41.412;2.164;2023-05-08T12:35:18;100652.63;;;23.21;47.42
47154;BME280;32907;41.412;2.164;2023-05-08T12:37:47;100661.31;;;23.23;47.03
47154;BME280;32907;41.412;2.164;2023-05-08T12:40:39;100895.69;;;24.63;45.99
47154;BME280;32907;41.412;2.164;2023-05-08T12:43:12;100865.09;;;24.47;46.71
47154;BME280;32907;41.412;2.164;2023-05-08T12:45:41;100660.34;;;23.19;45.95
47154;BME280;32907;41.412;2.164;2023-05-08T12:48:13;100733.97;;;23.65;46.22
47154;BME280;32907;41.412;2.164;2023-05-08T12:50:48;100742.06;;;23.56;46.27
47154;BME280;32907;41.412;2.164;2023-05-08T12:53:18;100717.75;;;23.55;46.22
47154;BME280;32907;41.412;2.164;2023-05-08T12:55:55;100618.66;;;22.99;46.02
47154;BME280;32907;41.412;2.164;2023-05-08T12:58:29;100767.50;;;23.93;45.93
47154;BME280;32907;41.412;2.164;2023-05-08T13:01:11;100803.78;;;24.21;45.38
47154;BME280;32907;41.412;2.164;2023-05-08T13:03:51;100676.38;;;23.34;45.45
47154;BME280;32907;41.412;2.164;2023-05-08T13:06:35;100752.09;;;23.75;45.55
47154;BME280;32907;41.412;2.164;2023-05-08T13:09:04;100781.69;;;23.95;44.23
47154;BME280;32907;41.412;2.164;2023-05-08T13:11:32;100868.78;;;24.43;42.83
47154;BME280;32907;41.412;2.164;2023-05-08T13:14:01;100670.88;;;23.11;43.02
47154;BME280;32907;41.412;2.164;2023-05-08T13:16:40;100888.66;;;24.48;42.09
47154;BME280;32907;41.412;2.164;2023-05-08T13:19:10;100887.63;;;24.44;42.89
47154;BME280;32907;41.412;2.164;2023-05-08T13:21:38;100884.78;;;24.49;42.17
47154;BME280;32907;41.412;2.164;2023-05-08T13:24:07;100889.81;;;24.56;42.42
47154;BME280;32907;41.412;2.164;2023-05-08T13:26:35;100886.78;;;24.58;43.03
47154;BME280;32907;41.412;2.164;2023-05-08T13:29:04;100829.63;;;24.28;43.40
47154;BME280;32907;41.412;2.164;2023-05-08T13:31:32;100884.06;;;24.66;43.40
47154;BME280;32907;41.412;2.164;2023-05-08T13:34:01;100868.25;;;24.63;42.43
47154;BME280;32907;41.412;2.164;2023-05-08T13:36:28;100849.50;;;24.57;43.05
47154;BME280;32907;41.412;2.164;2023-05-08T13:38:58;100864.25;;;24.69;43.32
47154;BME280;32907;41.412;2.164;2023-05-08T13:41:26;100868.59;;;24.70;43.76
47154;BME280;32907;41.412;2.164;2023-05-08T13:43:54;100812.47;;;24.37;43.10
47154;BME280;32907;41.412;2.164;2023-05-08T13:46:22;100834.78;;;24.52;44.04
47154;BME280;32907;41.412;2.164;2023-05-08T13:48:51;100857.81;;;24.74;43.97
47154;BME280;32907;41.412;2.164;2023-05-08T13:51:19;100847.66;;;24.74;44.13
47154;BME280;32907;41.412;2.164;2023-05-08T13:53:47;100839.28;;;24.71;45.12
47154;BME280;32907;41.412;2.164;2023-05-08T13:56:14;100839.13;;;24.76;43.90
47154;BME280;32907;41.412;2.164;2023-05-08T13:58:42;100842.31;;;24.69;43.69
47154;BME280;32907;41.412;2.164;2023-05-08T14:01:11;100852.34;;;24.74;43.17